Startpagina
METAR-TAF:

METAR-TAF

Vliegvelden :

Internationale luchthaven van Bahrein

Bahrein, Bahrein

breedte: 26-16N, lengte: 050-39E, hoogte: 2 m

Actueel weer

Dit bericht is 9 minuten geleden gemaakt, om 08:00 UTC
Wind 14 kt uit het noordnoordwesten
Temperatuur 24°C
Vochtigheid 57%
Druk 1020 hPa
Zicht 10 km of meer
Weinig wolken op 3000 ft

METAR: OBBI 110800Z 34014KT 9999 FEW030 24/15 Q1020 NOSIG

Tijdstip: 11:09 (08:09 UTC)

Verwachting

Dit bericht is 3 uur en het 9 minuten geleden gemaakt, om 05:00 UTC
Verwachting geldig van 11 om 06 UTC tot 12 om 12 UTC
Wind 16 kt uit het noorden
Zicht 10 km of meer
geen wolken onder 1500 m en geen cumulonimbus

TAF: OBBI 110500Z 1106/1212 35016KT CAVOK

Waarnemingen en weersverwachtingen van meer dan 4000 vliegvelden (METAR en TAF).

De beschikbare stations zijn de gele en rode punten op de kaart.

Ga met uw muis naar het station om de naam te zien.

Klik dan om waarnemingen en weersverwachtingen te zien.

kaart wijzigen: klik op de groene knoppen met een zwart kruis om in te zoomen, op de groene knop met een streepje om uit te zoomen of op de groene pijlen voor aangrenzende kaarten.


METAR-TAF: